Time;durP1;ratioP1;P1;durP2;ratioP2;P2;SDS_P1;SDS_P2;PMS_P1;PMS_P2;Temp;Humidity;BMP_temperature;BMP_pressure;BME280_temperature;BME280_humidity;BME280_pressure;Samples;Min_cycle;Max_cycle;Signal;HPM_P1;HPM_P2
2023/06/29 00:00:39;;;;;;;;;45.40;36.20;;;;;;;;1962204;28;3604367;-78
2023/06/29 00:01:55;;;;;;;;;44.80;35.40;;;;;;;;1960464;28;3593993;-78
2023/06/29 00:03:05;;;;;;;;;38.00;30.00;;;;;;;;1940991;28;2848145;-77
2023/06/29 00:04:20;;;;;;;;;46.20;36.00;;;;;;;;1974381;28;3592921;-77
2023/06/29 00:05:31;;;;;;;;;45.50;31.50;;;;;;;;1954104;28;2859643;-77
2023/06/29 00:06:43;;;;;;;;;43.20;32.80;;;;;;;;1972856;28;3583530;-77
2023/06/29 00:07:58;;;;;;;;;42.80;34.20;;;;;;;;1965489;28;3608536;-78
2023/06/29 00:09:08;;;;;;;;;41.00;31.50;;;;;;;;1952910;28;2860657;-77
2023/06/29 00:10:20;;;;;;;;;44.80;33.60;;;;;;;;1968874;28;3597087;-77
2023/06/29 00:11:33;;;;;;;;;32.20;26.80;;;;;;;;1980725;28;3598140;-78
2023/06/29 00:12:44;;;;;;;;;39.67;30.00;;;;;;;;1957056;28;2872146;-79
2023/06/29 00:13:55;;;;;;;;;45.00;36.00;;;;;;;;1980073;28;2853340;-78
2023/06/29 00:15:06;;;;;;;;;42.20;31.60;;;;;;;;1960520;28;3584572;-79
2023/06/29 00:16:18;;;;;;;;;43.80;32.80;;;;;;;;1961785;28;3586679;-79
2023/06/29 00:17:30;;;;;;;;;41.60;32.40;;;;;;;;1976624;28;3584587;-79
2023/06/29 00:18:42;;;;;;;;;36.00;30.60;;;;;;;;1978249;28;3606497;-78
2023/06/29 00:19:54;;;;;;;;;45.40;35.00;;;;;;;;1973992;28;3592928;-78
2023/06/29 00:21:06;;;;;;;;;40.40;32.20;;;;;;;;1971729;28;3585602;-78
2023/06/29 00:22:21;;;;;;;;;41.00;34.20;;;;;;;;1973742;28;3584604;-78
2023/06/29 00:23:34;;;;;;;;;45.00;34.50;;;;;;;;1946207;28;2855537;-78
2023/06/29 00:24:44;;;;;;;;;46.00;34.00;;;;;;;;1938284;28;2866892;-78
2023/06/29 00:25:56;;;;;;;;;50.40;38.40;;;;;;;;1969113;28;3616870;-78
2023/06/29 00:27:09;;;;;;;;;46.00;38.00;;;;;;;;1978798;28;3609626;-78
2023/06/29 00:28:19;;;;;;;;;48.00;37.00;;;;;;;;1950460;28;2848167;-78
2023/06/29 00:29:31;;;;;;;;;45.40;36.00;;;;;;;;1964674;28;3601305;-78
2023/06/29 00:30:43;;;;;;;;;49.20;38.20;;;;;;;;1970516;28;3594973;-78
2023/06/29 00:31:55;;;;;;;;;50.40;39.60;;;;;;;;1972920;28;3602280;-79
2023/06/29 00:33:09;;;;;;;;;48.25;40.50;;;;;;;;1977038;28;3610660;-79
2023/06/29 00:34:21;;;;;;;;;52.80;40.60;;;;;;;;1962703;28;3610624;-78
2023/06/29 00:35:33;;;;;;;;;52.40;41.00;;;;;;;;1967906;28;3618972;-78
2023/06/29 00:36:45;;;;;;;;;55.00;42.20;;;;;;;;1962481;28;3612680;-79
2023/06/29 00:37:57;;;;;;;;;58.60;45.80;;;;;;;;1965102;28;3633531;-79
2023/06/29 00:39:09;;;;;;;;;56.20;43.80;;;;;;;;1957874;28;3621088;-81
2023/06/29 00:40:21;;;;;;;;;59.60;47.20;;;;;;;;1976576;28;3623195;-81
2023/06/29 00:41:33;;;;;;;;;56.60;44.00;;;;;;;;1980838;28;3619987;-81
2023/06/29 00:42:45;;;;;;;;;50.00;40.00;;;;;;;;1977283;28;3599266;-80
2023/06/29 00:43:57;;;;;;;;;50.20;41.80;;;;;;;;1973854;28;3602276;-80
2023/06/29 00:45:11;;;;;;;;;60.75;47.00;;;;;;;;1972499;28;3626240;-80
2023/06/29 00:46:24;;;;;;;;;57.40;46.20;;;;;;;;2000274;28;3607519;-80
2023/06/29 00:47:35;;;;;;;;;57.67;43.00;;;;;;;;1956128;28;3635630;-80
2023/06/29 00:48:48;;;;;;;;;59.17;44.33;;;;;;;;1989814;28;3640811;-81
2023/06/29 00:49:59;;;;;;;;;62.33;47.33;;;;;;;;1972997;28;2882509;-82
2023/06/29 00:51:10;;;;;;;;;64.00;50.00;;;;;;;;1971526;28;2853355;-82
2023/06/29 00:52:25;;;;;;;;;60.20;47.40;;;;;;;;1958430;28;3610636;-82
2023/06/29 00:53:37;;;;;;;;;60.50;45.00;;;;;;;;1944196;28;2887728;-78
2023/06/29 00:54:48;;;;;;;;;63.33;51.00;;;;;;;;1939633;28;3615932;-78
2023/06/29 00:56:02;;;;;;;;;67.88;51.63;;;;;;;;1954510;28;3624242;-78
2023/06/29 00:57:15;;;;;;;;;72.83;54.00;;;;;;;;1951490;28;3641549;-78
2023/06/29 00:58:26;;;;;;;;;68.00;51.50;;;;;;;;1966084;28;2887756;-81
2023/06/29 00:59:40;;;;;;;;;70.00;53.25;;;;;;;;1960180;28;3626355;-81
2023/06/29 01:00:52;;;;;;;;;69.00;53.60;;;;;;;;1973745;28;3633584;-80
2023/06/29 01:02:08;;;;;;;;;67.63;51.63;;;;;;;;1966315;28;3626260;-80
2023/06/29 01:03:20;;;;;;;;;62.00;49.50;;;;;;;;1966032;28;2859018;-80
2023/06/29 01:04:33;;;;;;;;;66.50;48.50;;;;;;;;1941104;28;2885705;-80
2023/06/29 01:05:45;;;;;;;;;67.00;51.00;;;;;;;;1941399;28;2885022;-80
2023/06/29 01:06:57;;;;;;;;;64.00;50.00;;;;;;;;1944984;28;2867969;-80
2023/06/29 01:08:13;;;;;;;;;62.50;48.50;;;;;;;;1945221;28;2866931;-80
2023/06/29 01:09:24;;;;;;;;;61.50;47.00;;;;;;;;1946822;28;2886727;-80
2023/06/29 01:10:36;;;;;;;;;60.00;45.00;;;;;;;;1954329;28;2891927;-80
2023/06/29 01:11:47;;;;;;;;;52.00;41.50;;;;;;;;1976550;28;2862768;-80
2023/06/29 01:12:59;;;;;;;;;57.50;43.00;;;;;;;;1953584;28;2879426;-80
2023/06/29 01:14:11;;;;;;;;;56.50;45.00;;;;;;;;1945992;28;2879463;-80
2023/06/29 01:15:22;;;;;;;;;52.00;40.00;;;;;;;;1947248;28;2861727;-80
2023/06/29 01:16:34;;;;;;;;;50.80;42.00;;;;;;;;1971136;28;3604383;-80
2023/06/29 01:17:45;;;;;;;;;49.50;38.00;;;;;;;;1947682;28;2855423;-79
2023/06/29 01:18:57;;;;;;;;;51.60;39.80;;;;;;;;1950027;28;3598136;-80
2023/06/29 01:20:12;;;;;;;;;52.33;41.33;;;;;;;;1948849;28;2871062;-80
2023/06/29 01:21:23;;;;;;;;;51.00;42.00;;;;;;;;1971473;28;2864867;-80
2023/06/29 01:22:43;;;;;;;;;52.40;40.80;;;;;;;;1963495;28;3622484;-79
2023/06/29 01:23:55;;;;;;;;;53.00;41.00;;;;;;;;1945153;28;2877341;-80
2023/06/29 01:25:05;;;;;;;;;47.00;38.50;;;;;;;;1948018;28;2852365;-80
2023/06/29 01:26:17;;;;;;;;;49.60;38.80;;;;;;;;1969510;28;3604343;-80
2023/06/29 01:27:29;;;;;;;;;54.40;39.20;;;;;;;;1970242;28;3632503;-80
2023/06/29 01:28:41;;;;;;;;;48.80;40.00;;;;;;;;1978588;28;3602407;-80
2023/06/29 01:29:55;;;;;;;;;48.60;37.20;;;;;;;;1972951;28;3601654;-79
2023/06/29 01:31:05;;;;;;;;;52.00;40.00;;;;;;;;1956180;28;2862717;-79
2023/06/29 01:32:33;;;;;;;;;49.38;39.38;;;;;;;;2001839;27;3607517;-78
2023/06/29 01:33:45;;;;;;;;;50.50;38.00;;;;;;;;2039763;27;2875300;-79
2023/06/29 01:34:55;;;;;;;;;52.00;41.00;;;;;;;;2015867;27;2879418;-81
2023/06/29 01:36:13;;;;;;;;;52.80;41.60;;;;;;;;2039366;27;3611653;-80
2023/06/29 01:37:25;;;;;;;;;49.50;37.00;;;;;;;;2014691;27;2858696;-80
2023/06/29 01:38:56;;;;;;;;;49.50;39.00;;;;;;;;2013066;27;2866915;-81
2023/06/29 01:40:08;;;;;;;;;53.00;41.00;;;;;;;;2010182;27;2887756;-80
2023/06/29 01:41:20;;;;;;;;;52.00;39.50;;;;;;;;2015932;27;2872136;-81
2023/06/29 01:42:32;;;;;;;;;47.00;36.00;;;;;;;;2015858;27;2852351;-81
2023/06/29 01:43:43;;;;;;;;;54.50;40.00;;;;;;;;2016029;27;2895428;-81
2023/06/29 01:44:54;;;;;;;;;46.00;37.50;;;;;;;;2014608;27;2849634;-81
2023/06/29 01:46:06;;;;;;;;;46.40;37.60;;;;;;;;2029881;27;3591902;-80
2023/06/29 01:47:20;;;;;;;;;49.40;36.40;;;;;;;;2064553;27;3618949;-80
2023/06/29 01:48:31;;;;;;;;;48.00;38.50;;;;;;;;2013428;27;2840838;-83
2023/06/29 01:49:42;;;;;;;;;45.50;36.00;;;;;;;;2011841;27;2845393;-79
2023/06/29 01:50:54;;;;;;;;;47.40;38.40;;;;;;;;2025580;27;3593950;-79
2023/06/29 01:52:05;;;;;;;;;51.00;40.60;;;;;;;;2019759;27;3612733;-80
2023/06/29 01:53:17;;;;;;;;;47.40;38.80;;;;;;;;2030646;27;3588725;-80
2023/06/29 01:54:29;;;;;;;;;46.67;37.33;;;;;;;;2028366;27;3580793;-80
2023/06/29 01:55:41;;;;;;;;;52.20;39.60;;;;;;;;2042921;27;3629437;-79
2023/06/29 01:56:53;;;;;;;;;48.20;38.40;;;;;;;;2041874;27;3591894;-80
2023/06/29 01:58:05;;;;;;;;;45.80;37.60;;;;;;;;2041728;27;3602326;-79
2023/06/29 01:59:17;;;;;;;;;51.00;41.00;;;;;;;;2042377;27;3606433;-79
2023/06/29 02:00:29;;;;;;;;;42.80;34.60;;;;;;;;2042316;27;3623099;-80
2023/06/29 02:01:41;;;;;;;;;51.00;41.20;;;;;;;;2042564;27;3616861;-79
2023/06/29 02:02:53;;;;;;;;;51.40;41.00;;;;;;;;2040190;27;3615820;-77
2023/06/29 02:04:06;;;;;;;;;53.20;40.20;;;;;;;;2042219;27;3622140;-78
2023/06/29 02:05:19;;;;;;;;;52.20;39.80;;;;;;;;2022321;27;3621526;-77
2023/06/29 02:06:30;;;;;;;;;53.33;40.67;;;;;;;;2016418;27;3618925;-76
2023/06/29 02:07:42;;;;;;;;;53.40;40.00;;;;;;;;2062580;27;3623132;-78
2023/06/29 02:08:54;;;;;;;;;49.60;40.40;;;;;;;;2036758;27;3606472;-80
2023/06/29 02:10:05;;;;;;;;;52.00;41.00;;;;;;;;2027473;27;2506502;-80
2023/06/29 02:11:17;;;;;;;;;43.80;35.40;;;;;;;;2026938;27;3580407;-80
2023/06/29 02:12:29;;;;;;;;;48.80;37.40;;;;;;;;2061037;27;3598101;-79
2023/06/29 02:13:40;;;;;;;;;50.50;39.00;;;;;;;;2018890;27;2506589;-79
2023/06/29 02:14:52;;;;;;;;;44.80;36.80;;;;;;;;2032606;27;3591870;-79
2023/06/29 02:16:04;;;;;;;;;49.20;39.00;;;;;;;;2058785;27;3601241;-78
2023/06/29 02:17:16;;;;;;;;;43.40;35.00;;;;;;;;2036099;27;3591890;-78
2023/06/29 02:18:28;;;;;;;;;48.00;38.00;;;;;;;;2032124;27;3591878;-79
2023/06/29 02:19:40;;;;;;;;;50.60;41.20;;;;;;;;2039310;27;3613744;-79
2023/06/29 02:20:53;;;;;;;;;46.20;34.60;;;;;;;;2042497;27;3596082;-79
2023/06/29 02:22:04;;;;;;;;;49.33;38.67;;;;;;;;2015716;27;2872609;-79
2023/06/29 02:23:15;;;;;;;;;49.00;37.33;;;;;;;;2040723;27;2869010;-77
2023/06/29 02:24:26;;;;;;;;;47.33;36.00;;;;;;;;2039666;27;2866885;-77
2023/06/29 02:25:37;;;;;;;;;46.00;37.00;;;;;;;;2040906;27;2850213;-77
2023/06/29 02:26:49;;;;;;;;;48.00;35.60;;;;;;;;2038303;27;3600188;-77
2023/06/29 02:28:01;;;;;;;;;48.80;35.60;;;;;;;;2034853;27;3613735;-76
2023/06/29 02:29:13;;;;;;;;;51.40;40.40;;;;;;;;2041415;27;3616873;-75
2023/06/29 02:30:25;;;;;;;;;47.80;37.80;;;;;;;;2039582;27;3590829;-75
2023/06/29 02:31:37;;;;;;;;;47.20;35.60;;;;;;;;2039927;27;3607471;-78
2023/06/29 02:32:49;;;;;;;;;47.00;35.60;;;;;;;;2042322;27;3608558;-78
2023/06/29 02:34:01;;;;;;;;;37.60;33.60;;;;;;;;2039716;27;3575224;-79
2023/06/29 02:35:13;;;;;;;;;49.20;35.80;;;;;;;;2041859;27;3605427;-79
2023/06/29 02:36:25;;;;;;;;;45.80;35.40;;;;;;;;2041101;27;3603332;-80
2023/06/29 02:37:37;;;;;;;;;47.00;38.40;;;;;;;;2041202;27;3591929;-80
2023/06/29 02:38:49;;;;;;;;;47.20;38.00;;;;;;;;2039519;27;3605406;-80
2023/06/29 02:40:01;;;;;;;;;42.40;34.40;;;;;;;;2040559;27;3588741;-80
2023/06/29 02:41:12;;;;;;;;;47.00;35.40;;;;;;;;2040300;27;3595031;-80
2023/06/29 02:42:24;;;;;;;;;42.00;33.80;;;;;;;;2041365;27;3588752;-80
2023/06/29 02:43:36;;;;;;;;;42.60;36.20;;;;;;;;2036933;27;3598174;-80
2023/06/29 02:44:48;;;;;;;;;45.20;36.20;;;;;;;;2037726;27;3588733;-80
2023/06/29 02:46:00;;;;;;;;;43.40;35.00;;;;;;;;2036422;27;3594991;-80
2023/06/29 02:47:12;;;;;;;;;46.60;37.20;;;;;;;;2035011;27;3590861;-81
2023/06/29 02:48:25;;;;;;;;;48.60;35.80;;;;;;;;2034937;27;3623190;-81
2023/06/29 02:49:36;;;;;;;;;43.60;35.20;;;;;;;;2025463;27;3622124;-81
2023/06/29 02:50:48;;;;;;;;;49.40;36.20;;;;;;;;2038172;27;3629395;-81
2023/06/29 02:52:00;;;;;;;;;43.40;34.00;;;;;;;;2037087;27;3590833;-81
2023/06/29 02:53:16;;;;;;;;;41.80;34.20;;;;;;;;2036849;27;3611675;-81
2023/06/29 02:54:27;;;;;;;;;41.00;33.33;;;;;;;;2002698;27;2838760;-84
2023/06/29 02:55:37;;;;;;;;;40.00;35.50;;;;;;;;2031246;27;2853343;-82
2023/06/29 02:56:49;;;;;;;;;38.80;33.00;;;;;;;;2038563;27;3583529;-82
2023/06/29 02:58:01;;;;;;;;;46.80;37.00;;;;;;;;2035976;27;3613205;-82
2023/06/29 02:59:13;;;;;;;;;47.60;38.40;;;;;;;;2037387;27;3588738;-82
2023/06/29 03:00:25;;;;;;;;;39.80;33.60;;;;;;;;2035267;27;3580434;-82
2023/06/29 03:01:37;;;;;;;;;43.00;34.20;;;;;;;;2029004;27;3589790;-81
2023/06/29 03:02:50;;;;;;;;;51.40;38.80;;;;;;;;2034694;27;3619985;-79
2023/06/29 03:04:00;;;;;;;;;38.00;31.50;;;;;;;;2010408;27;2851275;-85
2023/06/29 03:05:12;;;;;;;;;47.40;34.20;;;;;;;;2034355;27;3617886;-87
2023/06/29 03:06:24;;;;;;;;;45.80;34.20;;;;;;;;2027906;27;3593954;-88
2023/06/29 03:07:36;;;;;;;;;47.40;35.40;;;;;;;;2023892;27;3611703;-89
2023/06/29 03:08:48;;;;;;;;;46.40;37.40;;;;;;;;2039113;27;3599145;-80
2023/06/29 03:10:00;;;;;;;;;42.00;31.40;;;;;;;;2039784;27;3590835;-83
2023/06/29 03:11:12;;;;;;;;;53.40;38.20;;;;;;;;2028794;27;3615836;-81
2023/06/29 03:12:24;;;;;;;;;46.20;37.20;;;;;;;;2034469;27;3585632;-81
2023/06/29 03:13:36;;;;;;;;;48.60;35.40;;;;;;;;2035812;27;3605419;-82
2023/06/29 03:14:48;;;;;;;;;48.80;35.80;;;;;;;;2029236;27;3614770;-81
2023/06/29 03:16:01;;;;;;;;;46.40;37.00;;;;;;;;2034775;27;3596510;-81
2023/06/29 03:17:13;;;;;;;;;43.50;36.00;;;;;;;;2011781;27;2853350;-82
2023/06/29 03:18:23;;;;;;;;;43.00;36.00;;;;;;;;2012741;27;2850225;-82
2023/06/29 03:19:35;;;;;;;;;27.60;24.20;;;;;;;;2035597;27;3583534;-81
2023/06/29 03:20:47;;;;;;;;;51.00;38.40;;;;;;;;2036040;27;3610671;-81
2023/06/29 03:21:59;;;;;;;;;44.60;32.80;;;;;;;;2028670;27;3607475;-81
2023/06/29 03:23:11;;;;;;;;;50.20;39.00;;;;;;;;2037128;27;3612706;-82
2023/06/29 03:24:22;;;;;;;;;15.00;11.00;;;;;;;;2021579;27;2815931;-81
2023/06/29 03:25:34;;;;;;;;;48.20;34.40;;;;;;;;2033772;27;3617923;-82
2023/06/29 03:26:46;;;;;;;;;47.00;35.60;;;;;;;;2032062;27;3591898;-84
2023/06/29 03:27:58;;;;;;;;;49.80;38.40;;;;;;;;2034257;27;3610604;-84
2023/06/29 03:29:10;;;;;;;;;47.80;37.20;;;;;;;;2036092;27;3597106;-84
2023/06/29 03:30:22;;;;;;;;;48.40;39.00;;;;;;;;2037690;27;3584582;-84
2023/06/29 03:31:34;;;;;;;;;52.60;39.20;;;;;;;;2033950;27;3623119;-83
2023/06/29 03:32:46;;;;;;;;;44.40;35.80;;;;;;;;2036704;27;3588753;-83
2023/06/29 03:34:00;;;;;;;;;49.40;38.00;;;;;;;;2035384;27;3623115;-83
2023/06/29 03:35:10;;;;;;;;;50.00;38.00;;;;;;;;2003360;27;2852313;-83
2023/06/29 03:36:22;;;;;;;;;51.60;39.20;;;;;;;;2021883;27;3622077;-83
2023/06/29 03:37:34;;;;;;;;;46.40;36.20;;;;;;;;2037201;27;3581506;-83
2023/06/29 03:38:46;;;;;;;;;49.20;39.00;;;;;;;;2035752;27;3597463;-82
2023/06/29 03:39:58;;;;;;;;;49.20;37.40;;;;;;;;2037398;27;3600194;-82
2023/06/29 03:41:10;;;;;;;;;41.00;35.20;;;;;;;;2037549;27;3598120;-82
2023/06/29 03:42:22;;;;;;;;;52.80;41.40;;;;;;;;2037439;27;3617946;-82
2023/06/29 03:43:34;;;;;;;;;47.20;35.60;;;;;;;;2034746;27;3602378;-83
2023/06/29 03:44:46;;;;;;;;;51.20;40.80;;;;;;;;2029914;27;3617907;-83
2023/06/29 03:45:59;;;;;;;;;49.00;37.40;;;;;;;;2024845;27;3613743;-82
2023/06/29 03:47:10;;;;;;;;;51.33;40.67;;;;;;;;2011683;27;2872119;-83
2023/06/29 03:48:22;;;;;;;;;53.00;39.00;;;;;;;;2034769;27;3635613;-82
2023/06/29 03:49:33;;;;;;;;;47.80;39.20;;;;;;;;2040357;27;3596069;-82
2023/06/29 03:50:45;;;;;;;;;54.00;38.60;;;;;;;;2034586;27;3626268;-82
2023/06/29 03:51:57;;;;;;;;;50.00;37.40;;;;;;;;2032849;27;3614825;-82
2023/06/29 03:53:09;;;;;;;;;49.60;39.20;;;;;;;;2036586;27;3603320;-83
2023/06/29 03:54:21;;;;;;;;;37.40;30.40;;;;;;;;2037509;27;3584913;-82
2023/06/29 03:55:33;;;;;;;;;49.00;38.20;;;;;;;;2030531;27;3617433;-83
2023/06/29 03:56:45;;;;;;;;;50.20;38.80;;;;;;;;2036786;27;3606469;-82
2023/06/29 03:57:57;;;;;;;;;48.20;37.20;;;;;;;;2036946;27;3583577;-82
2023/06/29 03:59:09;;;;;;;;;47.40;37.80;;;;;;;;2025474;27;3592903;-82
2023/06/29 04:00:23;;;;;;;;;49.25;39.38;;;;;;;;2033339;27;3614810;-82
2023/06/29 04:01:35;;;;;;;;;48.20;38.00;;;;;;;;2054703;27;3617919;-82
2023/06/29 04:02:47;;;;;;;;;45.00;36.80;;;;;;;;2037635;27;3596056;-82
2023/06/29 04:03:59;;;;;;;;;49.80;37.40;;;;;;;;2035020;27;3617902;-82
2023/06/29 04:05:11;;;;;;;;;48.00;37.80;;;;;;;;2034675;27;3603374;-79
2023/06/29 04:06:23;;;;;;;;;45.80;37.20;;;;;;;;2036621;27;3583521;-83
2023/06/29 04:07:35;;;;;;;;;44.00;34.60;;;;;;;;2034680;27;3591868;-82
2023/06/29 04:08:47;;;;;;;;;28.80;20.00;;;;;;;;2032530;27;3589791;-85
2023/06/29 04:09:59;;;;;;;;;49.00;37.00;;;;;;;;2035792;27;3584567;-85
2023/06/29 04:11:12;;;;;;;;;45.00;37.00;;;;;;;;2033608;27;3584579;-83
2023/06/29 04:12:23;;;;;;;;;48.33;38.00;;;;;;;;2010156;27;2881561;-83
2023/06/29 04:13:34;;;;;;;;;53.67;40.00;;;;;;;;2034655;27;2881989;-83
2023/06/29 04:14:45;;;;;;;;;48.00;38.00;;;;;;;;2026907;27;2856499;-83
2023/06/29 04:15:56;;;;;;;;;44.50;35.00;;;;;;;;2008828;27;2845013;-83
2023/06/29 04:17:08;;;;;;;;;30.80;28.20;;;;;;;;2035218;27;3585644;-83
2023/06/29 04:18:20;;;;;;;;;47.20;38.60;;;;;;;;2035405;27;3595014;-82
2023/06/29 04:19:32;;;;;;;;;46.40;35.60;;;;;;;;2030869;27;3597066;-82
2023/06/29 04:20:44;;;;;;;;;48.80;38.80;;;;;;;;2011152;27;3612785;-83
2023/06/29 04:21:56;;;;;;;;;45.00;39.00;;;;;;;;2029137;27;3583546;-83
2023/06/29 04:23:11;;;;;;;;;45.40;37.60;;;;;;;;2030705;27;3591902;-83
2023/06/29 04:24:21;;;;;;;;;43.00;36.50;;;;;;;;2003795;27;2855418;-82
2023/06/29 04:25:33;;;;;;;;;47.20;36.80;;;;;;;;2028213;27;3589780;-83
2023/06/29 04:26:45;;;;;;;;;44.60;36.80;;;;;;;;2037230;27;3578357;-82
2023/06/29 04:27:57;;;;;;;;;46.60;37.60;;;;;;;;2035591;27;3589829;-82
2023/06/29 04:29:09;;;;;;;;;49.00;38.80;;;;;;;;2035472;27;3596041;-82
2023/06/29 04:30:21;;;;;;;;;49.80;39.20;;;;;;;;2036717;27;3603304;-82
2023/06/29 04:31:33;;;;;;;;;51.20;38.40;;;;;;;;2034547;27;3603339;-82
2023/06/29 04:32:46;;;;;;;;;46.80;37.80;;;;;;;;2033322;27;3601615;-82
2023/06/29 04:33:58;;;;;;;;;42.00;33.00;;;;;;;;2010843;27;2840962;-82
2023/06/29 04:35:09;;;;;;;;;49.00;38.50;;;;;;;;2010122;27;2860649;-83
2023/06/29 04:36:21;;;;;;;;;50.20;38.80;;;;;;;;2012928;27;3599216;-82
2023/06/29 04:37:40;;;;;;;;;50.67;41.00;;;;;;;;2010981;27;2866963;-82
2023/06/29 04:38:50;;;;;;;;;43.50;34.00;;;;;;;;2025041;27;2856868;-80
2023/06/29 04:40:04;;;;;;;;;47.80;39.40;;;;;;;;2030270;27;3599146;-79
2023/06/29 04:41:15;;;;;;;;;46.50;35.50;;;;;;;;2033980;27;2851343;-82
2023/06/29 04:42:30;;;;;;;;;47.80;39.60;;;;;;;;2026417;27;3599165;-84
2023/06/29 04:43:40;;;;;;;;;47.00;36.50;;;;;;;;2009165;27;2861679;-84
2023/06/29 04:44:52;;;;;;;;;48.60;39.60;;;;;;;;2036737;27;3593937;-85
2023/06/29 04:46:04;;;;;;;;;48.20;40.40;;;;;;;;2022050;27;3614854;-84
2023/06/29 04:47:17;;;;;;;;;40.40;36.00;;;;;;;;2035954;27;3586680;-83
2023/06/29 04:48:37;;;;;;;;;46.00;35.67;;;;;;;;2008998;27;2875252;-85
2023/06/29 04:49:52;;;;;;;;;48.50;36.50;;;;;;;;2032373;27;2854434;-84
2023/06/29 04:51:06;;;;;;;;;35.50;30.50;;;;;;;;2005971;27;2838806;-81
2023/06/29 04:52:18;;;;;;;;;46.50;37.00;;;;;;;;2002898;27;2848273;-79
2023/06/29 04:53:29;;;;;;;;;53.00;39.00;;;;;;;;2007445;27;2871085;-79
2023/06/29 04:54:41;;;;;;;;;48.60;37.40;;;;;;;;2033826;27;3605784;-79
2023/06/29 04:55:53;;;;;;;;;52.00;41.20;;;;;;;;2034273;27;3629726;-78
2023/06/29 04:57:05;;;;;;;;;51.00;38.40;;;;;;;;2034705;27;3617287;-77
2023/06/29 04:58:16;;;;;;;;;48.20;39.40;;;;;;;;2031498;27;3593042;-76
2023/06/29 04:59:28;;;;;;;;;48.40;36.80;;;;;;;;2034764;27;3599217;-75
2023/06/29 05:00:41;;;;;;;;;46.60;33.60;;;;;;;;2036510;27;3598106;-75
2023/06/29 05:01:52;;;;;;;;;49.40;33.60;;;;;;;;2034275;27;3614770;-75
2023/06/29 05:03:04;;;;;;;;;45.20;33.60;;;;;;;;2036289;27;3590833;-75
2023/06/29 05:04:17;;;;;;;;;40.80;33.60;;;;;;;;2030842;27;3598112;-75
2023/06/29 05:05:28;;;;;;;;;51.60;38.80;;;;;;;;2016814;27;3615903;-75
2023/06/29 05:06:40;;;;;;;;;48.80;37.80;;;;;;;;2026897;27;3617887;-76
2023/06/29 05:07:52;;;;;;;;;46.80;37.00;;;;;;;;2035193;27;3591898;-75
2023/06/29 05:09:04;;;;;;;;;47.60;36.00;;;;;;;;2039492;27;3606951;-76
2023/06/29 05:10:16;;;;;;;;;48.00;36.60;;;;;;;;2037327;27;3614786;-75
2023/06/29 05:11:28;;;;;;;;;49.60;39.60;;;;;;;;2032643;27;3615856;-75
2023/06/29 05:12:40;;;;;;;;;48.00;38.80;;;;;;;;2031335;27;3606448;-76
2023/06/29 05:13:52;;;;;;;;;46.80;37.80;;;;;;;;2031401;27;3578345;-75
2023/06/29 05:15:04;;;;;;;;;48.60;35.20;;;;;;;;2030219;27;3604389;-76
2023/06/29 05:16:16;;;;;;;;;42.40;34.40;;;;;;;;2029190;27;3587720;-75
2023/06/29 05:17:28;;;;;;;;;46.20;39.00;;;;;;;;2035949;27;3592967;-75
2023/06/29 05:18:40;;;;;;;;;46.00;37.20;;;;;;;;2034042;27;3600227;-75
2023/06/29 05:19:52;;;;;;;;;47.60;35.40;;;;;;;;2035084;27;3609577;-75
2023/06/29 05:21:04;;;;;;;;;47.00;38.40;;;;;;;;2029240;27;3599176;-75
2023/06/29 05:22:16;;;;;;;;;48.80;35.00;;;;;;;;2027987;27;3605415;-75
2023/06/29 05:23:28;;;;;;;;;47.00;38.40;;;;;;;;2035562;27;3607530;-76
2023/06/29 05:24:41;;;;;;;;;45.80;37.00;;;;;;;;2033518;27;3593976;-76
2023/06/29 05:25:52;;;;;;;;;47.00;36.00;;;;;;;;2003923;27;2859635;-75
2023/06/29 05:27:04;;;;;;;;;40.20;33.00;;;;;;;;2036281;27;3574146;-75
2023/06/29 05:28:16;;;;;;;;;50.20;37.60;;;;;;;;2024846;27;3612082;-75
2023/06/29 05:29:27;;;;;;;;;46.40;36.40;;;;;;;;2033119;27;3593961;-75
2023/06/29 05:30:40;;;;;;;;;51.40;39.40;;;;;;;;2028608;28;3592947;-75
2023/06/29 05:31:51;;;;;;;;;47.20;37.20;;;;;;;;2028997;27;3585605;-75
2023/06/29 05:33:04;;;;;;;;;51.40;37.20;;;;;;;;2027121;27;3632511;-75
2023/06/29 05:34:15;;;;;;;;;48.60;36.20;;;;;;;;2023434;27;3621035;-75
2023/06/29 05:35:27;;;;;;;;;46.60;37.20;;;;;;;;2032152;27;3602357;-75
2023/06/29 05:36:39;;;;;;;;;47.00;36.00;;;;;;;;2029354;27;3613077;-75
2023/06/29 05:37:51;;;;;;;;;49.20;38.60;;;;;;;;2029165;27;3608540;-75
2023/06/29 05:39:05;;;;;;;;;49.00;38.60;;;;;;;;2036577;27;3592959;-75
2023/06/29 05:40:15;;;;;;;;;48.00;38.00;;;;;;;;2008248;27;2854449;-75
2023/06/29 05:41:27;;;;;;;;;48.20;38.20;;;;;;;;2030674;27;3589787;-75
2023/06/29 05:42:39;;;;;;;;;38.20;32.00;;;;;;;;2032862;27;3600227;-75
2023/06/29 05:43:51;;;;;;;;;50.40;38.80;;;;;;;;2020702;27;3599229;-78
2023/06/29 05:45:03;;;;;;;;;45.80;36.60;;;;;;;;2032950;27;3592995;-79
2023/06/29 05:46:15;;;;;;;;;46.40;35.00;;;;;;;;2027826;27;3622566;-78
2023/06/29 05:47:27;;;;;;;;;50.00;37.20;;;;;;;;2029764;27;3625663;-78
2023/06/29 05:48:39;;;;;;;;;48.60;36.20;;;;;;;;2034412;27;3602339;-78
2023/06/29 05:49:51;;;;;;;;;46.60;36.60;;;;;;;;2027919;27;3603314;-80
2023/06/29 05:51:03;;;;;;;;;44.80;35.20;;;;;;;;2029016;27;3582582;-80
2023/06/29 05:52:15;;;;;;;;;48.00;38.00;;;;;;;;2022005;27;3605777;-79
2023/06/29 05:53:27;;;;;;;;;49.60;33.80;;;;;;;;2028045;27;3620025;-79
2023/06/29 05:54:39;;;;;;;;;46.60;36.20;;;;;;;;2033244;27;3601285;-79
2023/06/29 05:55:51;;;;;;;;;47.00;37.00;;;;;;;;2036899;27;3596017;-78
2023/06/29 05:57:03;;;;;;;;;44.00;35.60;;;;;;;;2033408;27;3605450;-76
2023/06/29 05:58:15;;;;;;;;;49.00;39.00;;;;;;;;2026513;27;3599245;-77
2023/06/29 05:59:27;;;;;;;;;47.40;35.00;;;;;;;;2009990;27;3586718;-78
2023/06/29 06:00:39;;;;;;;;;44.80;35.20;;;;;;;;2030364;27;3601249;-79
2023/06/29 06:01:51;;;;;;;;;45.40;34.40;;;;;;;;2034369;27;3600239;-79
2023/06/29 06:03:03;;;;;;;;;43.20;36.20;;;;;;;;2034970;27;3583525;-79
2023/06/29 06:04:14;;;;;;;;;47.00;33.50;;;;;;;;2018228;27;2856869;-78
2023/06/29 06:05:26;;;;;;;;;46.00;36.40;;;;;;;;2048660;27;3609581;-79
2023/06/29 06:06:39;;;;;;;;;45.00;35.60;;;;;;;;2032357;27;3600203;-78
2023/06/29 06:07:49;;;;;;;;;41.50;31.00;;;;;;;;2010792;27;2847124;-79
2023/06/29 06:09:01;;;;;;;;;49.60;35.80;;;;;;;;2032287;27;3629341;-78
2023/06/29 06:10:13;;;;;;;;;43.20;32.40;;;;;;;;2024305;27;3589791;-78
2023/06/29 06:11:25;;;;;;;;;40.20;33.00;;;;;;;;2026270;27;3595067;-75
2023/06/29 06:12:37;;;;;;;;;42.80;34.40;;;;;;;;2033535;27;3590829;-76
2023/06/29 06:13:49;;;;;;;;;45.40;36.00;;;;;;;;2033301;27;3596065;-76
2023/06/29 06:15:01;;;;;;;;;42.20;35.60;;;;;;;;2030394;27;3589771;-75
2023/06/29 06:16:13;;;;;;;;;42.00;35.00;;;;;;;;2025640;27;3597110;-76
2023/06/29 06:17:25;;;;;;;;;38.80;30.80;;;;;;;;2026185;27;3613752;-75
2023/06/29 06:18:37;;;;;;;;;47.20;36.00;;;;;;;;2024510;27;3601340;-76
2023/06/29 06:19:49;;;;;;;;;43.00;33.40;;;;;;;;2036026;27;3583548;-75
2023/06/29 06:21:01;;;;;;;;;46.60;35.40;;;;;;;;2032359;27;3615938;-75
2023/06/29 06:22:13;;;;;;;;;43.00;34.60;;;;;;;;2035970;27;3593937;-75
2023/06/29 06:23:25;;;;;;;;;46.40;35.60;;;;;;;;2034251;27;3603819;-75
2023/06/29 06:24:37;;;;;;;;;46.40;36.20;;;;;;;;2036577;27;3607502;-75
2023/06/29 06:25:49;;;;;;;;;42.00;35.00;;;;;;;;2037501;27;3591878;-75
2023/06/29 06:27:01;;;;;;;;;45.20;34.00;;;;;;;;2027815;27;3606441;-76
2023/06/29 06:28:13;;;;;;;;;47.20;35.40;;;;;;;;2026183;27;3604352;-76
2023/06/29 06:29:25;;;;;;;;;42.80;34.20;;;;;;;;2033211;27;3584650;-75
2023/06/29 06:30:37;;;;;;;;;43.40;35.20;;;;;;;;2034648;27;3600262;-75
2023/06/29 06:31:49;;;;;;;;;42.40;34.00;;;;;;;;2037018;27;3587700;-75
2023/06/29 06:33:01;;;;;;;;;38.40;32.40;;;;;;;;2030000;27;3585639;-75
2023/06/29 06:34:13;;;;;;;;;41.80;33.80;;;;;;;;2027907;27;3583597;-75
2023/06/29 06:35:25;;;;;;;;;38.60;31.40;;;;;;;;2031734;27;3597448;-75
2023/06/29 06:36:37;;;;;;;;;43.80;33.20;;;;;;;;2037498;27;3583600;-75
2023/06/29 06:37:48;;;;;;;;;43.00;33.40;;;;;;;;2032871;27;3595027;-74
2023/06/29 06:39:00;;;;;;;;;42.40;34.80;;;;;;;;2037291;27;3586686;-74
2023/06/29 06:40:13;;;;;;;;;45.80;33.60;;;;;;;;2035593;27;3603367;-75
2023/06/29 06:41:24;;;;;;;;;39.40;32.40;;;;;;;;2033966;27;3586646;-75
2023/06/29 06:42:37;;;;;;;;;39.20;32.80;;;;;;;;2034165;27;3577347;-74
2023/06/29 06:43:48;;;;;;;;;40.60;34.20;;;;;;;;2025110;27;3583620;-74
2023/06/29 06:45:03;;;;;;;;;45.00;36.60;;;;;;;;2037361;27;3605428;-75
2023/06/29 06:46:14;;;;;;;;;41.33;33.00;;;;;;;;2011273;27;2842925;-75
2023/06/29 06:47:25;;;;;;;;;37.00;33.50;;;;;;;;2031991;27;2838758;-75